Pelagia — PGRQ — position and weather

sailwx.info

Track history (hours):
 
Tides and Currents Weather Stations Pressure Air Temp Water Temp Dewpoint Dewpoint Depression Visibility Wind Speed Wind Dir Waves Ship Positions

Oceanographic research ship Pelagia (Netherlands)

Detailed information on ship capabilities available from University of Delaware's Ocean Information Center and ARCUS's ALIAS (Arctic Logistics Information and Support) project.

Last reported at 2016-May-24 09:29 UTC. Time now 2016-May-24 23:34 UTC.
Position N 55°44' E 016°04'.

Length 66 m; beam 13 m.

Type: Other ship. MMSI: 244925000.

Date/timePositionNaut miles runAvg speedWind from/ knotsBaromVisibWave heightAir tempDewpointWater temp
2016-May-24 09:29N 55°44' E 016°04'8 8.7
2016-May-24 08:33N 55°39' E 015°52'8 8.4
2016-May-24 07:33N 55°33' E 015°41'8 8.5
2016-May-24 06:33N 55°28' E 015°29'1 0.8
2016-May-24 05:33N 55°28' E 015°30'2 2.3
2016-May-24 04:33N 55°27' E 015°34'1 0.9
2016-May-24 03:34N 55°28' E 015°33'1 0.9
2016-May-24 02:33N 55°28' E 015°31'1 0.8
2016-May-24 01:33N 55°29' E 015°30'1 1.3
2016-May-24 00:34N 55°29' E 015°28'1 1.0
2016-May-23 23:33N 55°29' E 015°26'0 0.4
2016-May-23 22:33N 55°29' E 015°26'1 0.8
2016-May-23 21:33N 55°29' E 015°25'0 0.5
2016-May-23 20:34N 55°29' E 015°24'1 0.6
2016-May-23 19:33N 55°29' E 015°25'1 0.8
2016-May-23 18:33N 55°28' E 015°26'1 0.9
2016-May-23 17:34N 55°28' E 015°28'1 0.6
2016-May-23 16:33N 55°28' E 015°29'0 0.0
2016-May-23 15:33N 55°28' E 015°29'0 0.0
2016-May-23 14:34N 55°28' E 015°29'0 0.0
2016-May-23 13:33N 55°28' E 015°29'0 0.0
2016-May-23 12:33N 55°28' E 015°29'0 0.0
2016-May-23 11:34N 55°28' E 015°29'0 0.0
2016-May-23 10:33N 55°28' E 015°29'0 0.1
2016-May-23 09:34N 55°28' E 015°29'0 0.1
2016-May-23 08:33N 55°28' E 015°29'0 0.0
2016-May-23 07:34N 55°28' E 015°29'0 0.0
2016-May-23 06:34N 55°28' E 015°29'1 1.1
2016-May-23 05:33N 55°28' E 015°27'1 0.7
2016-May-23 04:33N 55°28' E 015°28'8 8.1
2016-May-23 03:33N 55°27' E 015°14'814.7
2016-May-23 03:00N 55°24' E 015°00'2 3.8 140 / 191009.310.8 1.513.3 11.2
2016-May-23 02:34N 55°25' E 014°58'9 9.2
2016-May-23 01:33N 55°23' E 014°42'9 9.1
2016-May-23 00:34N 55°17' E 014°30'9 9.3
2016-May-22 23:33N 55°10' E 014°19'9 9.4
2016-May-22 22:34N 55°03' E 014°09'9 9.1
2016-May-22 21:33N 54°59' E 013°54'9 9.2
2016-May-22 20:33N 54°56' E 013°39'5 5.4
2016-May-22 19:34N 54°55' E 013°30'0 0.0
2016-May-22 18:33N 54°55' E 013°30'0 0.0
2016-May-22 17:34N 54°55' E 013°30'0 0.0
2016-May-22 16:34N 54°55' E 013°30'0 0.0
2016-May-22 15:33N 54°55' E 013°30'0 0.0
2016-May-22 14:33N 54°55' E 013°30'0 0.1
2016-May-22 13:34N 54°55' E 013°30'1 1.1
2016-May-22 12:33N 54°55' E 013°28'0 0.5
2016-May-22 11:33N 54°55' E 013°29'3 3.2
2016-May-22 10:33N 54°54' E 013°24'5 5.1
2016-May-22 09:34N 54°55' E 013°32'4 4.4
2016-May-22 08:33N 54°54' E 013°25'0 0.3
2016-May-22 07:34N 54°54' E 013°25'0 0.0
2016-May-22 06:33N 54°54' E 013°25'0 0.3
2016-May-22 05:34N 54°54' E 013°25'1 1.4
2016-May-22 04:34N 54°55' E 013°24'1 0.7
2016-May-22 03:34N 54°55' E 013°25'1 1.2
2016-May-22 02:33N 54°55' E 013°27'1 0.7
2016-May-22 01:33N 54°55' E 013°28'2 2.3
2016-May-22 00:29N 54°54' E 013°25'3 2.8
2016-May-21 23:33N 54°56' E 013°27'3 2.8
2016-May-21 22:33N 54°54' E 013°25'0 0.1
2016-May-21 21:16N 54°54' E 013°25'0 0.2
2016-May-21 20:33N 54°54' E 013°25'0 0.0
2016-May-21 19:34N 54°54' E 013°25'0 0.0
2016-May-21 18:34N 54°54' E 013°25'0 0.0
2016-May-21 17:33N 54°54' E 013°25'0 0.1
2016-May-21 16:34N 54°54' E 013°25'0 0.3
2016-May-21 15:34N 54°54' E 013°25'0 0.0
2016-May-21 14:33N 54°53' E 013°25'2 0.9
2016-May-21 12:33N 54°52' E 013°24'1 0.8
2016-May-21 11:22N 54°51' E 013°25'0 0.0
2016-May-21 10:25N 54°51' E 013°25'0 0.4
2016-May-21 09:34N 54°51' E 013°25'2 1.6
2016-May-21 08:09N 54°51' E 013°21'0 0.1
2016-May-21 07:21N 54°51' E 013°21'0 0.2
2016-May-21 06:27N 54°51' E 013°22'1 1.0
2016-May-21 05:33N 54°51' E 013°23'1 0.5
2016-May-21 03:06N 54°51' E 013°21'19 4.3
2016-May-20 22:33N 55°08' E 013°04'6 6.3
2016-May-20 21:33N 55°12' E 012°56'6 6.5
2016-May-20 20:33N 55°16' E 012°47'6 6.4
2016-May-20 19:33N 55°20' E 012°38'7 6.7
2016-May-20 18:33N 55°26' E 012°39'7 7.2
2016-May-20 17:34N 55°32' E 012°46'7 7.4
2016-May-20 16:34N 55°38' E 012°55'6 6.4
2016-May-20 15:33N 55°44' E 012°51'6 6.5
2016-May-20 14:34N 55°50' E 012°45'0 0.2
2016-May-20 13:34N 55°50' E 012°45'0 0.0
2016-May-20 12:34N 55°50' E 012°45'0 0.0
2016-May-20 11:34N 55°50' E 012°45'0 0.1
2016-May-20 10:34N 55°50' E 012°45'0 0.1
2016-May-20 09:34N 55°50' E 012°45'2 1.9
2016-May-20 08:33N 55°48' E 012°46'5 5.2
2016-May-20 07:33N 55°53' E 012°44'3 2.6
2016-May-20 06:34N 55°56' E 012°43'0 0.0
2016-May-20 05:34N 55°56' E 012°43'0 0.0
2016-May-20 04:33N 55°56' E 012°43'2 1.8
2016-May-20 03:34N 55°55' E 012°46'2 2.4
2016-May-20 02:34N 55°56' E 012°42'2 2.2
2016-May-20 01:33N 55°55' E 012°45'3 3.2
2016-May-20 00:34N 55°57' E 012°41'3 2.9
2016-May-19 23:34N 55°55' E 012°45'3 3.3
2016-May-19 22:34N 55°57' E 012°41'7 7.3
2016-May-19 21:34N 56°04' E 012°37'7 6.6
2016-May-19 20:33N 56°08' E 012°27'8 7.5
2016-May-19 19:33N 56°14' E 012°19'3 2.8
2016-May-19 18:33N 56°17' E 012°17'0 0.0
2016-May-19 17:33N 56°17' E 012°17'0 0.0
2016-May-19 16:32N 56°17' E 012°17'1 1.2
2016-May-19 15:28N 56°18' E 012°15'24 6.0
2016-May-19 11:28N 56°36' E 011°46'0 0.3
2016-May-19 10:34N 56°36' E 011°47'0 0.0
2016-May-19 09:34N 56°36' E 011°47'0 0.0
2016-May-19 08:34N 56°36' E 011°47'0 0.0
2016-May-19 07:34N 56°36' E 011°47'0 0.0
2016-May-19 06:33N 56°36' E 011°47'0 0.0
2016-May-19 05:32N 56°36' E 011°47'0 0.1
2016-May-19 04:32N 56°36' E 011°47'2 1.7
2016-May-19 03:34N 56°38' E 011°47'12 8.0
2016-May-19 02:06N 56°49' E 011°49'5 8.8
2016-May-19 01:33N 56°54' E 011°46'8 8.6
2016-May-19 00:34N 57°02' E 011°41'9 8.9
2016-May-18 23:33N 57°10' E 011°35'9 8.9
2016-May-18 22:33N 57°18' E 011°30'9 9.1
2016-May-18 21:33N 57°27' E 011°24'9 9.0
2016-May-18 20:34N 57°35' E 011°17'10 9.8
2016-May-18 19:33N 57°44' E 011°09'2 2.1
2016-May-18 18:33N 57°46' E 011°07'0 0.0
2016-May-18 17:33N 57°46' E 011°07'0 0.4
2016-May-18 16:34N 57°45' E 011°07'0 0.3
2016-May-18 15:34N 57°46' E 011°07'2 2.2
2016-May-18 14:33N 57°48' E 011°05'9 9.2
2016-May-18 13:33N 57°54' E 010°52'9 9.4
2016-May-18 12:33N 58°01' E 010°40'9 9.6
2016-May-18 11:34N 58°07' E 010°26'10 9.7
2016-May-18 10:33N 58°13' E 010°12'25 8.5
2016-May-18 07:34N 58°30' E 009°36'0 0.0
2016-May-18 06:33N 58°30' E 009°36'0 0.0
2016-May-18 05:33N 58°30' E 009°36'0 0.0
2016-May-18 04:34N 58°30' E 009°36'3 2.6
2016-May-18 03:33N 58°28' E 009°33'4 4.3
2016-May-18 02:34N 58°31' E 009°37'2 1.8
2016-May-18 01:33N 58°30' E 009°36'1 1.4
2016-May-18 00:33N 58°29' E 009°34'5 4.8
2016-May-17 23:34N 58°32' E 009°40'8 8.4
2016-May-17 22:33N 58°24' E 009°38'8 8.0
2016-May-17 21:33N 58°17' E 009°32'9 9.0
2016-May-17 20:34N 58°09' E 009°24'10 9.9
2016-May-17 19:33N 57°60' E 009°16'16810.2
2016-May-17 03:00N 55°36' E 006°36'93 9.8 300 / 191012.710.8 2.0 8.1 13.0
2016-May-16 17:30N 54°15' E 005°16'1010.0
2016-May-16 16:33N 54°06' E 005°10'1010.1
2016-May-16 15:33N 53°56' E 005°04'5310.7
2016-May-16 10:33N 53°06' E 004°32'1010.3
2016-May-16 09:34N 52°56' E 004°34'8 7.4
2016-May-16 08:31N 52°59' E 004°46'2 0.2
2016-May-15 20:31N 53°00' E 004°48'0 0.0
2016-May-15 19:31N 53°00' E 004°48'0 0.0
2016-May-15 17:04N 53°00' E 004°48'0 0.0
2016-May-15 15:28N 53°00' E 004°48'0 0.0
2016-May-14 21:21N 53°00' E 004°48'0 0.0
2016-May-14 20:33N 53°00' E 004°48'0 0.0
2016-May-14 19:33N 53°00' E 004°48'0 0.0
2016-May-14 18:33N 53°00' E 004°48'0 0.0
2016-May-14 17:33N 53°00' E 004°48'0 0.0
2016-May-14 16:33N 53°00' E 004°48'0 0.0
2016-May-14 15:30N 53°00' E 004°48'0 0.0
2016-May-14 14:33N 53°00' E 004°48'0 0.0
2016-May-14 13:33N 53°00' E 004°48'0 0.0
2016-May-14 12:33N 53°00' E 004°48'0 0.0
2016-May-14 11:33N 53°00' E 004°48'0 0.0
2016-May-14 10:30N 53°00' E 004°48'0 0.0
2016-May-14 09:33N 53°00' E 004°48'  
Track history (hours):
 
Tides and Currents Weather Stations Pressure Air Temp Water Temp Dewpoint Dewpoint Depression Visibility Wind Speed Wind Dir Waves Ship Positions

Oceanographic research ship Pelagia (Netherlands)

Detailed information on ship capabilities available from University of Delaware's Ocean Information Center and ARCUS's ALIAS (Arctic Logistics Information and Support) project.

Last reported at 2016-May-24 09:29 UTC. Time now 2016-May-24 23:34 UTC.
Position N 55°44' E 016°04'.

Length 66 m; beam 13 m.

Type: Other ship. MMSI: 244925000.

Date/timePositionNaut miles runAvg speedWind from/ knotsBaromVisibWave heightAir tempDewpointWater temp
2016-May-24 09:29N 55°44' E 016°04'8 8.7
2016-May-24 08:33N 55°39' E 015°52'8 8.4
2016-May-24 07:33N 55°33' E 015°41'8 8.5
2016-May-24 06:33N 55°28' E 015°29'1 0.8
2016-May-24 05:33N 55°28' E 015°30'2 2.3
2016-May-24 04:33N 55°27' E 015°34'1 0.9
2016-May-24 03:34N 55°28' E 015°33'1 0.9
2016-May-24 02:33N 55°28' E 015°31'1 0.8
2016-May-24 01:33N 55°29' E 015°30'1 1.3
2016-May-24 00:34N 55°29' E 015°28'1 1.0
2016-May-23 23:33N 55°29' E 015°26'0 0.4
2016-May-23 22:33N 55°29' E 015°26'1 0.8
2016-May-23 21:33N 55°29' E 015°25'0 0.5
2016-May-23 20:34N 55°29' E 015°24'1 0.6
2016-May-23 19:33N 55°29' E 015°25'1 0.8
2016-May-23 18:33N 55°28' E 015°26'1 0.9
2016-May-23 17:34N 55°28' E 015°28'1 0.6
2016-May-23 16:33N 55°28' E 015°29'0 0.0
2016-May-23 15:33N 55°28' E 015°29'0 0.0
2016-May-23 14:34N 55°28' E 015°29'0 0.0
2016-May-23 13:33N 55°28' E 015°29'0 0.0
2016-May-23 12:33N 55°28' E 015°29'0 0.0
2016-May-23 11:34N 55°28' E 015°29'0 0.0
2016-May-23 10:33N 55°28' E 015°29'0 0.1
2016-May-23 09:34N 55°28' E 015°29'0 0.1
2016-May-23 08:33N 55°28' E 015°29'0 0.0
2016-May-23 07:34N 55°28' E 015°29'0 0.0
2016-May-23 06:34N 55°28' E 015°29'1 1.1
2016-May-23 05:33N 55°28' E 015°27'1 0.7
2016-May-23 04:33N 55°28' E 015°28'8 8.1
2016-May-23 03:33N 55°27' E 015°14'814.7
2016-May-23 03:00N 55°24' E 015°00'2 3.8 140 / 191009.310.8 1.513.3 11.2
2016-May-23 02:34N 55°25' E 014°58'9 9.2
2016-May-23 01:33N 55°23' E 014°42'9 9.1
2016-May-23 00:34N 55°17' E 014°30'9 9.3
2016-May-22 23:33N 55°10' E 014°19'9 9.4
2016-May-22 22:34N 55°03' E 014°09'9 9.1
2016-May-22 21:33N 54°59' E 013°54'9 9.2
2016-May-22 20:33N 54°56' E 013°39'5 5.4
2016-May-22 19:34N 54°55' E 013°30'0 0.0
2016-May-22 18:33N 54°55' E 013°30'0 0.0
2016-May-22 17:34N 54°55' E 013°30'0 0.0
2016-May-22 16:34N 54°55' E 013°30'0 0.0
2016-May-22 15:33N 54°55' E 013°30'0 0.0
2016-May-22 14:33N 54°55' E 013°30'0 0.1
2016-May-22 13:34N 54°55' E 013°30'1 1.1
2016-May-22 12:33N 54°55' E 013°28'0 0.5
2016-May-22 11:33N 54°55' E 013°29'3 3.2
2016-May-22 10:33N 54°54' E 013°24'5 5.1
2016-May-22 09:34N 54°55' E 013°32'4 4.4
2016-May-22 08:33N 54°54' E 013°25'0 0.3
2016-May-22 07:34N 54°54' E 013°25'0 0.0
2016-May-22 06:33N 54°54' E 013°25'0 0.3
2016-May-22 05:34N 54°54' E 013°25'1 1.4
2016-May-22 04:34N 54°55' E 013°24'1 0.7
2016-May-22 03:34N 54°55' E 013°25'1 1.2
2016-May-22 02:33N 54°55' E 013°27'1 0.7
2016-May-22 01:33N 54°55' E 013°28'2 2.3
2016-May-22 00:29N 54°54' E 013°25'3 2.8
2016-May-21 23:33N 54°56' E 013°27'3 2.8
2016-May-21 22:33N 54°54' E 013°25'0 0.1
2016-May-21 21:16N 54°54' E 013°25'0 0.2
2016-May-21 20:33N 54°54' E 013°25'0 0.0
2016-May-21 19:34N 54°54' E 013°25'0 0.0
2016-May-21 18:34N 54°54' E 013°25'0 0.0
2016-May-21 17:33N 54°54' E 013°25'0 0.1
2016-May-21 16:34N 54°54' E 013°25'0 0.3
2016-May-21 15:34N 54°54' E 013°25'0 0.0
2016-May-21 14:33N 54°53' E 013°25'2 0.9
2016-May-21 12:33N 54°52' E 013°24'1 0.8
2016-May-21 11:22N 54°51' E 013°25'0 0.0
2016-May-21 10:25N 54°51' E 013°25'0 0.4
2016-May-21 09:34N 54°51' E 013°25'2 1.6
2016-May-21 08:09N 54°51' E 013°21'0 0.1
2016-May-21 07:21N 54°51' E 013°21'0 0.2
2016-May-21 06:27N 54°51' E 013°22'1 1.0
2016-May-21 05:33N 54°51' E 013°23'1 0.5
2016-May-21 03:06N 54°51' E 013°21'19 4.3
2016-May-20 22:33N 55°08' E 013°04'6 6.3
2016-May-20 21:33N 55°12' E 012°56'6 6.5
2016-May-20 20:33N 55°16' E 012°47'6 6.4
2016-May-20 19:33N 55°20' E 012°38'7 6.7
2016-May-20 18:33N 55°26' E 012°39'7 7.2
2016-May-20 17:34N 55°32' E 012°46'7 7.4
2016-May-20 16:34N 55°38' E 012°55'6 6.4
2016-May-20 15:33N 55°44' E 012°51'6 6.5
2016-May-20 14:34N 55°50' E 012°45'0 0.2
2016-May-20 13:34N 55°50' E 012°45'0 0.0
2016-May-20 12:34N 55°50' E 012°45'0 0.0
2016-May-20 11:34N 55°50' E 012°45'0 0.1
2016-May-20 10:34N 55°50' E 012°45'0 0.1
2016-May-20 09:34N 55°50' E 012°45'2 1.9
2016-May-20 08:33N 55°48' E 012°46'5 5.2
2016-May-20 07:33N 55°53' E 012°44'3 2.6
2016-May-20 06:34N 55°56' E 012°43'0 0.0
2016-May-20 05:34N 55°56' E 012°43'0 0.0
2016-May-20 04:33N 55°56' E 012°43'2 1.8
2016-May-20 03:34N 55°55' E 012°46'2 2.4
2016-May-20 02:34N 55°56' E 012°42'2 2.2
2016-May-20 01:33N 55°55' E 012°45'3 3.2
2016-May-20 00:34N 55°57' E 012°41'3 2.9
2016-May-19 23:34N 55°55' E 012°45'3 3.3
2016-May-19 22:34N 55°57' E 012°41'7 7.3
2016-May-19 21:34N 56°04' E 012°37'7 6.6
2016-May-19 20:33N 56°08' E 012°27'8 7.5
2016-May-19 19:33N 56°14' E 012°19'3 2.8
2016-May-19 18:33N 56°17' E 012°17'0 0.0
2016-May-19 17:33N 56°17' E 012°17'0 0.0
2016-May-19 16:32N 56°17' E 012°17'1 1.2
2016-May-19 15:28N 56°18' E 012°15'24 6.0
2016-May-19 11:28N 56°36' E 011°46'0 0.3
2016-May-19 10:34N 56°36' E 011°47'0 0.0
2016-May-19 09:34N 56°36' E 011°47'0 0.0
2016-May-19 08:34N 56°36' E 011°47'0 0.0
2016-May-19 07:34N 56°36' E 011°47'0 0.0
2016-May-19 06:33N 56°36' E 011°47'0 0.0
2016-May-19 05:32N 56°36' E 011°47'0 0.1
2016-May-19 04:32N 56°36' E 011°47'2 1.7
2016-May-19 03:34N 56°38' E 011°47'12 8.0
2016-May-19 02:06N 56°49' E 011°49'5 8.8
2016-May-19 01:33N 56°54' E 011°46'8 8.6
2016-May-19 00:34N 57°02' E 011°41'9 8.9
2016-May-18 23:33N 57°10' E 011°35'9 8.9
2016-May-18 22:33N 57°18' E 011°30'9 9.1
2016-May-18 21:33N 57°27' E 011°24'9 9.0
2016-May-18 20:34N 57°35' E 011°17'10 9.8
2016-May-18 19:33N 57°44' E 011°09'2 2.1
2016-May-18 18:33N 57°46' E 011°07'0 0.0
2016-May-18 17:33N 57°46' E 011°07'0 0.4
2016-May-18 16:34N 57°45' E 011°07'0 0.3
2016-May-18 15:34N 57°46' E 011°07'2 2.2
2016-May-18 14:33N 57°48' E 011°05'9 9.2
2016-May-18 13:33N 57°54' E 010°52'9 9.4
2016-May-18 12:33N 58°01' E 010°40'9 9.6
2016-May-18 11:34N 58°07' E 010°26'10 9.7
2016-May-18 10:33N 58°13' E 010°12'25 8.5
2016-May-18 07:34N 58°30' E 009°36'0 0.0
2016-May-18 06:33N 58°30' E 009°36'0 0.0
2016-May-18 05:33N 58°30' E 009°36'0 0.0
2016-May-18 04:34N 58°30' E 009°36'3 2.6
2016-May-18 03:33N 58°28' E 009°33'4 4.3
2016-May-18 02:34N 58°31' E 009°37'2 1.8
2016-May-18 01:33N 58°30' E 009°36'1 1.4
2016-May-18 00:33N 58°29' E 009°34'5 4.8
2016-May-17 23:34N 58°32' E 009°40'8 8.4
2016-May-17 22:33N 58°24' E 009°38'8 8.0
2016-May-17 21:33N 58°17' E 009°32'9 9.0
2016-May-17 20:34N 58°09' E 009°24'10 9.9
2016-May-17 19:33N 57°60' E 009°16'16810.2
2016-May-17 03:00N 55°36' E 006°36'93 9.8 300 / 191012.710.8 2.0 8.1 13.0
2016-May-16 17:30N 54°15' E 005°16'1010.0
2016-May-16 16:33N 54°06' E 005°10'1010.1
2016-May-16 15:33N 53°56' E 005°04'5310.7
2016-May-16 10:33N 53°06' E 004°32'1010.3
2016-May-16 09:34N 52°56' E 004°34'8 7.4
2016-May-16 08:31N 52°59' E 004°46'2 0.2
2016-May-15 20:31N 53°00' E 004°48'0 0.0
2016-May-15 19:31N 53°00' E 004°48'0 0.0
2016-May-15 17:04N 53°00' E 004°48'0 0.0
2016-May-15 15:28N 53°00' E 004°48'0 0.0
2016-May-14 21:21N 53°00' E 004°48'0 0.0
2016-May-14 20:33N 53°00' E 004°48'0 0.0
2016-May-14 19:33N 53°00' E 004°48'0 0.0
2016-May-14 18:33N 53°00' E 004°48'0 0.0
2016-May-14 17:33N 53°00' E 004°48'0 0.0
2016-May-14 16:33N 53°00' E 004°48'0 0.0
2016-May-14 15:30N 53°00' E 004°48'0 0.0
2016-May-14 14:33N 53°00' E 004°48'0 0.0
2016-May-14 13:33N 53°00' E 004°48'0 0.0
2016-May-14 12:33N 53°00' E 004°48'0 0.0
2016-May-14 11:33N 53°00' E 004°48'0 0.0
2016-May-14 10:30N 53°00' E 004°48'0 0.0
2016-May-14 09:33N 53°00' E 004°48'  

Dump ship's entire track history